createdAt,value
2023-04-14T00:01:44.746Z,94055.81
2023-04-14T00:04:38.706Z,94063.56
2023-04-14T00:07:32.770Z,94062.03
2023-04-14T00:10:19.689Z,94066.28
2023-04-14T00:12:52.884Z,94066.25
2023-04-14T00:15:39.629Z,94068.78
2023-04-14T00:18:12.872Z,94060.28
2023-04-14T00:21:00.803Z,94058.63
2023-04-14T00:23:33.765Z,94057.81
2023-04-14T00:26:23.756Z,94064.63
2023-04-14T00:29:03.739Z,94062.06
2023-04-14T00:31:50.635Z,94057.75
2023-04-14T00:34:30.680Z,94051.00
2023-04-14T00:37:17.700Z,94063.66
2023-04-14T00:39:50.830Z,94061.09
2023-04-14T00:42:38.619Z,94060.28
2023-04-14T00:45:12.009Z,94049.28
2023-04-14T00:47:58.811Z,94053.41
2023-04-14T00:50:31.838Z,94045.75
2023-04-14T00:53:19.722Z,94044.88
2023-04-14T00:55:52.902Z,94039.75
2023-04-14T00:58:39.623Z,94038.06
2023-04-14T01:01:15.645Z,94033.81
2023-04-14T01:04:03.714Z,94036.41
2023-04-14T01:06:37.982Z,94033.03
2023-04-14T01:09:24.634Z,94033.03
2023-04-14T01:12:18.662Z,94036.44
2023-04-14T01:15:39.844Z,94042.41
2023-04-14T01:18:15.887Z,94037.34
2023-04-14T01:21:14.658Z,94037.41
2023-04-14T01:24:04.674Z,94040.00
2023-04-14T01:26:52.673Z,94037.56
2023-04-14T01:30:08.638Z,94027.50
2023-04-14T01:33:05.657Z,94031.84
2023-04-14T01:36:04.636Z,94025.97
2023-04-14T01:38:47.671Z,94018.38
2023-04-14T01:41:36.663Z,94027.75
2023-04-14T01:44:32.650Z,94026.94
2023-04-14T01:47:21.770Z,94031.25
2023-04-14T01:50:03.661Z,94027.91
2023-04-14T01:53:00.673Z,94021.25
2023-04-14T01:55:55.681Z,94021.28
2023-04-14T01:58:43.667Z,94026.44
2023-04-14T02:01:23.704Z,94026.59
2023-04-14T02:04:11.710Z,94025.84
2023-04-14T02:06:53.679Z,94025.09
2023-04-14T02:09:41.655Z,94021.81
2023-04-14T02:12:18.779Z,94019.28
2023-04-14T02:15:07.666Z,94021.00
2023-04-14T02:17:41.865Z,94021.09
2023-04-14T02:20:28.679Z,94015.25
2023-04-14T02:23:01.731Z,94016.09
2023-04-14T02:26:02.673Z,94023.75
2023-04-14T02:28:46.666Z,94021.22
2023-04-14T02:31:43.684Z,94016.13
2023-04-14T02:34:37.499Z,94007.66
2023-04-14T02:37:17.784Z,94006.91
2023-04-14T02:40:12.666Z,94003.53
2023-04-14T02:42:49.762Z,94001.00
2023-04-14T02:45:39.695Z,93992.59
2023-04-14T02:48:27.676Z,93984.22
2023-04-14T02:51:16.680Z,93980.84
2023-04-14T02:53:50.821Z,93984.22
2023-04-14T02:56:38.658Z,93983.44
2023-04-14T02:59:13.160Z,93977.56
2023-04-14T03:02:00.750Z,93979.31
2023-04-14T03:04:44.787Z,93965.81
2023-04-14T03:07:40.678Z,93980.25
2023-04-14T03:10:29.702Z,93971.00
2023-04-14T03:13:04.844Z,93975.25
2023-04-14T03:15:52.767Z,93982.88
2023-04-14T03:18:27.800Z,93977.03
2023-04-14T03:21:14.709Z,93971.94
2023-04-14T03:23:48.567Z,93974.50
2023-04-14T03:26:37.755Z,93967.78
2023-04-14T03:29:15.169Z,93972.84
2023-04-14T03:32:04.707Z,93966.97
2023-04-14T03:34:39.780Z,93961.06
2023-04-14T03:37:32.699Z,93953.47
2023-04-14T03:40:08.804Z,93961.06
2023-04-14T03:42:56.698Z,93971.19
2023-04-14T03:45:29.832Z,93974.56
2023-04-14T03:48:19.703Z,93982.22
2023-04-14T03:50:54.901Z,93978.00
2023-04-14T03:53:44.697Z,93994.03
2023-04-14T03:56:19.834Z,93991.50
2023-04-14T03:59:09.576Z,93999.16
2023-04-14T04:01:45.106Z,94004.28
2023-04-14T04:04:32.777Z,94002.59
2023-04-14T04:07:05.795Z,94005.97
2023-04-14T04:09:54.713Z,94002.59
2023-04-14T04:12:29.799Z,93996.69
2023-04-14T04:15:17.735Z,93994.97
2023-04-14T04:17:53.923Z,94001.75
2023-04-14T04:20:44.720Z,93997.47
2023-04-14T04:23:18.834Z,93991.56
2023-04-14T04:26:05.705Z,93983.06
2023-04-14T04:28:45.721Z,93974.56
2023-04-14T04:31:34.747Z,93956.72
2023-04-14T04:34:08.885Z,93960.94
2023-04-14T04:36:56.718Z,93955.78
2023-04-14T04:39:36.717Z,93950.69
2023-04-14T04:42:30.722Z,93959.13
2023-04-14T04:45:17.737Z,93956.53
2023-04-14T04:47:50.899Z,93955.63
2023-04-14T04:50:37.721Z,93947.06
2023-04-14T04:53:12.339Z,93947.88
2023-04-14T04:55:58.733Z,93948.63
2023-04-14T04:58:31.846Z,93946.84
2023-04-14T05:01:18.763Z,93938.22
2023-04-14T05:03:52.843Z,93933.69
2023-04-14T05:06:45.722Z,93924.78
2023-04-14T05:09:25.723Z,93926.09
2023-04-14T05:12:12.730Z,93927.25
2023-04-14T05:14:45.990Z,93912.34
2023-04-14T05:17:32.749Z,93918.53
2023-04-14T05:20:05.854Z,93925.63
2023-04-14T05:22:52.738Z,93920.88
2023-04-14T05:25:25.905Z,93928.75
2023-04-14T05:28:12.737Z,93943.53
2023-04-14T05:30:46.072Z,93945.72
2023-04-14T05:33:32.763Z,93939.28
2023-04-14T05:36:06.014Z,93945.63
2023-04-14T05:38:52.767Z,93940.97
2023-04-14T05:41:25.999Z,93938.09
2023-04-14T05:44:12.742Z,93937.75
2023-04-14T05:46:52.818Z,93937.50
2023-04-14T05:49:46.783Z,93922.72
2023-04-14T05:52:40.759Z,93921.47
2023-04-14T05:55:27.747Z,93915.03
2023-04-14T05:58:07.746Z,93907.66
2023-04-14T06:00:54.748Z,93902.88
2023-04-14T06:03:28.457Z,93900.63
2023-04-14T06:06:15.760Z,93897.47
2023-04-14T06:08:55.792Z,93892.63
2023-04-14T06:11:49.743Z,93885.97
2023-04-14T06:14:36.782Z,93893.84
2023-04-14T06:17:09.898Z,93889.03
2023-04-14T06:19:56.766Z,93890.03
2023-04-14T06:22:29.998Z,93886.03
2023-04-14T06:25:17.777Z,93885.59
2023-04-14T06:27:50.892Z,93883.25
2023-04-14T06:30:40.746Z,93888.41
2023-04-14T06:33:13.927Z,93885.28
2023-04-14T06:36:01.790Z,93888.50
2023-04-14T06:38:41.789Z,93876.22
2023-04-14T06:41:35.780Z,93883.56
2023-04-14T06:44:22.790Z,93872.22
2023-04-14T06:46:57.243Z,93864.03
2023-04-14T06:49:43.767Z,93867.09
2023-04-14T06:52:23.781Z,93871.59
2023-04-14T06:55:13.706Z,93870.19
2023-04-14T06:57:53.823Z,93874.59
2023-04-14T07:00:40.737Z,93872.41
2023-04-14T07:03:21.830Z,93866.56
2023-04-14T07:06:19.797Z,93867.66
2023-04-14T07:09:13.785Z,93877.72
2023-04-14T07:12:00.797Z,93869.09
2023-04-14T07:14:33.873Z,93868.94
2023-04-14T07:17:20.833Z,93867.22
2023-04-14T07:19:53.936Z,93875.81
2023-04-14T07:22:40.792Z,93871.66
2023-04-14T07:25:20.790Z,93869.84
2023-04-14T07:28:07.840Z,93870.28
2023-04-14T07:30:47.811Z,93870.13
2023-04-14T07:33:37.794Z,93870.53
2023-04-14T07:36:10.994Z,93874.75
2023-04-14T07:38:58.804Z,93874.69
2023-04-14T07:41:32.898Z,93873.94
2023-04-14T07:44:19.869Z,93874.06
2023-04-14T07:46:52.893Z,93877.88
2023-04-14T07:49:39.821Z,93870.09
2023-04-14T07:52:19.813Z,93868.53
2023-04-14T07:55:13.814Z,93870.88
2023-04-14T07:58:00.812Z,93873.13
2023-04-14T08:00:33.896Z,93870.53
2023-04-14T08:03:20.968Z,93865.41
2023-04-14T08:05:53.933Z,93864.25
2023-04-14T08:08:41.812Z,93847.41
2023-04-14T08:11:14.956Z,93852.06
2023-04-14T08:14:01.906Z,93858.56
2023-04-14T08:16:38.965Z,93856.66
2023-04-14T08:19:25.861Z,93854.69
2023-04-14T08:21:58.935Z,93853.63
2023-04-14T08:24:45.847Z,93856.09
2023-04-14T08:27:18.917Z,93849.09
2023-04-14T08:30:05.830Z,93853.63
2023-04-14T08:32:45.892Z,93851.13
2023-04-14T08:35:35.149Z,93843.53
2023-04-14T08:38:16.814Z,93842.63
2023-04-14T08:41:10.823Z,93840.72
2023-04-14T08:44:04.833Z,93848.06
2023-04-14T08:46:57.823Z,93838.97
2023-04-14T08:49:45.834Z,93849.56
2023-04-14T08:52:40.919Z,93857.50
2023-04-14T08:55:31.667Z,93855.13
2023-04-14T08:58:07.485Z,93856.59
2023-04-14T09:00:53.935Z,93858.69
2023-04-14T09:03:27.116Z,93862.06
2023-04-14T09:06:13.851Z,93848.56
2023-04-14T09:08:53.841Z,93846.63
2023-04-14T09:11:48.870Z,93844.56
2023-04-14T09:14:42.873Z,93841.53
2023-04-14T09:17:38.888Z,93841.88
2023-04-14T09:20:36.484Z,93844.69
2023-04-14T09:23:21.849Z,93842.63
2023-04-14T09:26:08.862Z,93843.81
2023-04-14T09:28:42.957Z,93834.84
2023-04-14T09:31:30.948Z,93832.50
2023-04-14T09:34:10.972Z,93820.44
2023-04-14T09:37:17.862Z,93812.97
2023-04-14T09:40:04.873Z,93818.78
2023-04-14T09:42:47.142Z,93804.97
2023-04-14T09:45:50.870Z,93811.13
2023-04-14T09:48:24.960Z,93801.16
2023-04-14T09:51:15.851Z,93790.50
2023-04-14T09:53:49.307Z,93802.56
2023-04-14T09:56:35.853Z,93810.97
2023-04-14T09:59:16.853Z,93815.38
2023-04-14T10:02:05.968Z,93816.38
2023-04-14T10:04:45.905Z,93815.72
2023-04-14T10:07:33.891Z,93824.81
2023-04-14T10:10:22.883Z,93819.59
2023-04-14T10:13:09.907Z,93820.84
2023-04-14T10:15:43.498Z,93825.38
2023-04-14T10:18:29.866Z,93822.56
2023-04-14T10:21:02.986Z,93812.63
2023-04-14T10:23:50.888Z,93804.28
2023-04-14T10:26:26.334Z,93809.00
2023-04-14T10:29:12.875Z,93800.78
2023-04-14T10:31:56.030Z,93803.41
2023-04-14T10:34:51.907Z,93791.16
2023-04-14T10:37:39.890Z,93801.09
2023-04-14T10:40:23.262Z,93795.00
2023-04-14T10:43:18.888Z,93791.16
2023-04-14T10:46:02.083Z,93791.91
2023-04-14T10:48:53.893Z,93773.06
2023-04-14T10:51:27.011Z,93771.41
2023-04-14T10:54:31.922Z,93771.16
2023-04-14T10:57:27.926Z,93773.22
2023-04-14T11:00:33.910Z,93769.81
2023-04-14T11:03:32.220Z,93765.09
2023-04-14T11:06:26.009Z,93759.81
2023-04-14T11:09:43.926Z,93754.13
2023-04-14T11:12:34.946Z,93747.03
2023-04-14T11:15:11.110Z,93749.50
2023-04-14T11:17:57.937Z,93753.47
2023-04-14T11:20:31.285Z,93746.53
2023-04-14T11:23:20.941Z,93742.47
2023-04-14T11:25:56.687Z,93749.41
2023-04-14T11:28:44.965Z,93746.00
2023-04-14T11:31:23.393Z,93742.38
2023-04-14T11:34:15.923Z,93739.53
2023-04-14T11:36:49.015Z,93737.44
2023-04-14T11:39:36.934Z,93737.59
2023-04-14T11:42:11.049Z,93732.00
2023-04-14T11:45:06.962Z,93744.94
2023-04-14T11:47:40.118Z,93730.84
2023-04-14T11:50:27.014Z,93738.84
2023-04-14T11:53:08.406Z,93726.22
2023-04-14T11:55:56.933Z,93722.38
2023-04-14T11:58:39.961Z,93715.97
2023-04-14T12:01:36.918Z,93711.09
2023-04-14T12:04:31.050Z,93705.94
2023-04-14T12:07:25.947Z,93712.03
2023-04-14T12:10:14.004Z,93706.03
2023-04-14T12:12:47.048Z,93699.41
2023-04-14T12:15:34.942Z,93693.25
2023-04-14T12:18:09.116Z,93693.25
2023-04-14T12:21:10.818Z,93693.97
2023-04-14T12:23:48.394Z,93688.63
2023-04-14T12:26:34.998Z,93692.03
2023-04-14T12:29:16.960Z,93692.69
2023-04-14T12:32:04.049Z,93686.69
2023-04-14T12:34:37.053Z,93682.19
2023-04-14T12:37:23.982Z,93679.34
2023-04-14T12:40:07.950Z,93671.88
2023-04-14T12:43:03.960Z,93674.72
2023-04-14T12:45:59.958Z,93665.69
2023-04-14T12:48:58.983Z,93660.72
2023-04-14T12:51:52.955Z,93653.81
2023-04-14T12:54:59.017Z,93648.28
2023-04-14T12:57:41.982Z,93653.91
2023-04-14T13:00:37.019Z,93648.19
2023-04-14T13:03:24.060Z,93643.00
2023-04-14T13:06:10.973Z,93636.50
2023-04-14T13:09:03.240Z,93633.53
2023-04-14T13:11:43.980Z,93633.34
2023-04-14T13:14:39.451Z,93631.56
2023-04-14T13:17:33.061Z,93625.16
2023-04-14T13:20:19.967Z,93627.00
2023-04-14T13:23:00.119Z,93627.09
2023-04-14T13:25:53.970Z,93624.78
2023-04-14T13:28:40.978Z,93621.00
2023-04-14T13:31:14.090Z,93619.53
2023-04-14T13:34:00.994Z,93616.50
2023-04-14T13:36:34.260Z,93621.00
2023-04-14T13:39:20.985Z,93614.41
2023-04-14T13:41:54.093Z,93619.00
2023-04-14T13:44:41.986Z,93619.28
2023-04-14T13:47:16.766Z,93613.56
2023-04-14T13:50:03.009Z,93611.38
2023-04-14T13:52:42.988Z,93609.19
2023-04-14T13:55:30.010Z,93608.44
2023-04-14T13:58:03.150Z,93604.19
2023-04-14T14:00:50.004Z,93608.72
2023-04-14T14:03:23.315Z,93609.00
2023-04-14T14:06:16.985Z,93598.09
2023-04-14T14:09:11.078Z,93606.09
2023-04-14T14:11:46.600Z,93601.34
2023-04-14T14:14:32.999Z,93605.09
2023-04-14T14:17:13.017Z,93613.19
2023-04-14T14:20:00.019Z,93609.31
2023-04-14T14:22:33.139Z,93615.72
2023-04-14T14:25:21.257Z,93613.66
2023-04-14T14:28:03.020Z,93624.31
2023-04-14T14:30:57.060Z,93623.94
2023-04-14T14:33:45.026Z,93630.50
2023-04-14T14:36:18.108Z,93622.41
2023-04-14T14:39:05.048Z,93626.13
2023-04-14T14:41:38.213Z,93626.38
2023-04-14T14:44:25.029Z,93620.69
2023-04-14T14:47:06.191Z,93630.47
2023-04-14T14:50:01.204Z,93632.75
2023-04-14T14:52:57.067Z,93631.41
2023-04-14T14:55:50.985Z,93634.38
2023-04-14T14:58:38.031Z,93634.63
2023-04-14T15:01:17.979Z,93646.00
2023-04-14T15:04:05.263Z,93642.03
2023-04-14T15:06:45.991Z,93644.75
2023-04-14T15:09:39.984Z,93648.31
2023-04-14T15:12:34.107Z,93651.13
2023-04-14T15:15:28.023Z,93657.19
2023-04-14T15:18:15.014Z,93658.09
2023-04-14T15:20:55.048Z,93664.91
2023-04-14T15:23:51.043Z,93664.91
2023-04-14T15:26:38.093Z,93669.28
2023-04-14T15:29:11.175Z,93669.53
2023-04-14T15:31:58.138Z,93671.59
2023-04-14T15:34:31.189Z,93675.22
2023-04-14T15:37:18.078Z,93678.75
2023-04-14T15:39:51.413Z,93685.50
2023-04-14T15:42:38.078Z,93691.78
2023-04-14T15:45:19.088Z,93700.72
2023-04-14T15:48:13.068Z,93696.78
2023-04-14T15:51:00.055Z,93692.03
2023-04-14T15:53:33.258Z,93692.19
2023-04-14T15:56:20.074Z,93687.19
2023-04-14T15:59:00.085Z,93695.31
2023-04-14T16:01:54.280Z,93689.63
2023-04-14T16:04:41.118Z,93697.72
2023-04-14T16:07:14.311Z,93696.28
2023-04-14T16:10:01.161Z,93710.28
2023-04-14T16:12:42.092Z,93710.63
2023-04-14T16:15:29.066Z,93714.47
2023-04-14T16:18:02.750Z,93714.91
2023-04-14T16:20:49.084Z,93717.84
2023-04-14T16:23:29.093Z,93719.03
2023-04-14T16:26:23.093Z,93714.41
2023-04-14T16:29:10.093Z,93715.75
2023-04-14T16:31:50.156Z,93726.34
2023-04-14T16:34:44.095Z,93725.84
2023-04-14T16:37:33.106Z,93727.00
2023-04-14T16:40:13.104Z,93733.25
2023-04-14T16:43:00.091Z,93732.75
2023-04-14T16:45:33.365Z,93734.69
2023-04-14T16:48:20.126Z,93739.25
2023-04-14T16:51:00.151Z,93746.31
2023-04-14T16:53:54.113Z,93757.59
2023-04-14T16:56:42.117Z,93761.34
2023-04-14T16:59:15.197Z,93759.94
2023-04-14T17:02:02.290Z,93771.22
2023-04-14T17:04:36.517Z,93762.88
2023-04-14T17:07:23.074Z,93775.75
2023-04-14T17:10:03.116Z,93777.59
2023-04-14T17:12:50.101Z,93776.19
2023-04-14T17:15:23.738Z,93769.72
2023-04-14T17:18:10.106Z,93772.41
2023-04-14T17:20:46.309Z,93769.16
2023-04-14T17:23:34.174Z,93771.06
2023-04-14T17:26:07.244Z,93766.03
2023-04-14T17:28:54.109Z,93770.44
2023-04-14T17:31:34.131Z,93769.72
2023-04-14T17:34:28.089Z,93765.69
2023-04-14T17:37:22.092Z,93763.13
2023-04-14T17:40:17.121Z,93758.06
2023-04-14T17:43:04.117Z,93770.09
2023-04-14T17:45:37.249Z,93768.47
2023-04-14T17:48:24.079Z,93767.59
2023-04-14T17:50:57.217Z,93768.56
2023-04-14T17:53:44.092Z,93775.47
2023-04-14T17:56:17.214Z,93766.19
2023-04-14T17:59:05.119Z,93769.69
2023-04-14T18:01:45.302Z,93772.38
2023-04-14T18:04:39.119Z,93775.13
2023-04-14T18:07:33.132Z,93772.69
2023-04-14T18:10:20.119Z,93772.09
2023-04-14T18:12:53.298Z,93779.03
2023-04-14T18:15:40.137Z,93773.22
2023-04-14T18:18:13.215Z,93777.56
2023-04-14T18:21:00.146Z,93781.06
2023-04-14T18:23:40.122Z,93777.72
2023-04-14T18:26:34.115Z,93776.22
2023-04-14T18:29:21.139Z,93774.59
2023-04-14T18:31:55.149Z,93773.81
2023-04-14T18:34:42.144Z,93773.06
2023-04-14T18:37:15.860Z,93781.56
2023-04-14T18:40:03.202Z,93777.38
2023-04-14T18:42:43.134Z,93771.50
2023-04-14T18:45:37.124Z,93778.47
2023-04-14T18:48:24.141Z,93781.16
2023-04-14T18:51:08.154Z,93783.75
2023-04-14T18:53:55.161Z,93787.19
2023-04-14T18:56:28.516Z,93784.75
2023-04-14T18:59:16.133Z,93789.09
2023-04-14T19:01:49.346Z,93786.53
2023-04-14T19:04:37.156Z,93794.16
2023-04-14T19:07:10.681Z,93786.50
2023-04-14T19:09:57.156Z,93790.69
2023-04-14T19:12:31.930Z,93781.47
2023-04-14T19:15:20.265Z,93786.59
2023-04-14T19:18:00.227Z,93787.53
2023-04-14T19:20:47.107Z,93786.00
2023-04-14T19:23:21.014Z,93791.16
2023-04-14T19:26:09.135Z,93793.72
2023-04-14T19:28:49.160Z,93791.22
2023-04-14T19:31:43.191Z,93792.94
2023-04-14T19:34:37.206Z,93794.72
2023-04-14T19:37:24.161Z,93794.94
2023-04-14T19:40:04.183Z,93795.84
2023-04-14T19:42:51.167Z,93795.06
2023-04-14T19:45:24.250Z,93781.44
2023-04-14T19:48:22.745Z,93790.94
2023-04-14T19:50:59.299Z,93774.03
2023-04-14T19:53:46.197Z,93773.16
2023-04-14T19:56:19.842Z,93775.06
2023-04-14T19:59:06.214Z,93764.00
2023-04-14T20:01:39.284Z,93768.31
2023-04-14T20:04:27.315Z,93774.38
2023-04-14T20:07:07.178Z,93788.88
2023-04-14T20:10:01.173Z,93802.59
2023-04-14T20:12:48.187Z,93802.72
2023-04-14T20:15:21.276Z,93804.41
2023-04-14T20:18:08.178Z,93808.75
2023-04-14T20:20:48.180Z,93822.47
2023-04-14T20:23:42.161Z,93822.84
2023-04-14T20:26:29.196Z,93823.72
2023-04-14T20:29:09.196Z,93830.75
2023-04-14T20:31:56.190Z,93840.09
2023-04-14T20:34:29.494Z,93833.38
2023-04-14T20:37:16.168Z,93847.13
2023-04-14T20:39:49.764Z,93845.56
2023-04-14T20:42:36.184Z,93861.00
2023-04-14T20:45:09.447Z,93851.91
2023-04-14T20:47:56.227Z,93847.97
2023-04-14T20:50:36.178Z,93845.47
2023-04-14T20:53:33.225Z,93842.34
2023-04-14T20:56:20.194Z,93849.31
2023-04-14T20:58:53.316Z,93852.94
2023-04-14T21:01:40.222Z,93859.03
2023-04-14T21:04:20.353Z,93863.47
2023-04-14T21:07:14.197Z,93872.84
2023-04-14T21:10:08.194Z,93879.06
2023-04-14T21:15:31.331Z,93873.22
2023-04-14T21:16:16.308Z,93864.03
2023-04-14T21:19:04.629Z,93873.41
2023-04-14T21:21:38.283Z,93867.41
2023-04-14T21:24:25.221Z,93860.59
2023-04-14T21:26:58.347Z,93869.97
2023-04-14T21:29:45.218Z,93885.34
2023-04-14T21:32:18.545Z,93884.47
2023-04-14T21:35:05.204Z,93893.81
2023-04-14T21:37:39.765Z,93887.81
2023-04-14T21:40:27.218Z,93885.28
2023-04-14T21:43:00.847Z,93891.22
2023-04-14T21:45:47.282Z,93896.38
2023-04-14T21:48:27.227Z,93914.22
2023-04-14T21:51:14.283Z,93909.13
2023-04-14T21:53:47.357Z,93913.31
2023-04-14T21:56:34.323Z,93920.97
2023-04-14T21:59:14.246Z,93918.38
2023-04-14T22:02:01.386Z,93918.31
2023-04-14T22:04:41.312Z,93903.13
2023-04-14T22:07:28.224Z,93916.69
2023-04-14T22:10:08.258Z,93916.66
2023-04-14T22:13:02.268Z,93913.28
2023-04-14T22:15:50.310Z,93916.81
2023-04-14T22:18:23.360Z,93923.63
2023-04-14T22:21:11.274Z,93918.66
2023-04-14T22:23:51.243Z,93924.81
2023-04-14T22:26:45.234Z,93922.34
2023-04-14T22:29:32.237Z,93912.34
2023-04-14T22:32:05.482Z,93909.84
2023-04-14T22:34:52.294Z,93913.31
2023-04-14T22:37:25.327Z,93911.81
2023-04-14T22:40:13.242Z,93902.69
2023-04-14T22:42:46.612Z,93908.84
2023-04-14T22:45:33.258Z,93890.28
2023-04-14T22:48:07.050Z,93890.38
2023-04-14T22:50:54.363Z,93898.84
2023-04-14T22:53:34.350Z,93897.34
2023-04-14T22:56:28.265Z,93904.13
2023-04-14T22:59:24.212Z,93898.97
2023-04-14T23:02:13.509Z,93903.22
2023-04-14T23:04:53.428Z,93906.66
2023-04-14T23:07:47.259Z,93918.56
2023-04-14T23:10:41.317Z,93922.94
2023-04-14T23:13:28.253Z,93911.34
2023-04-14T23:16:01.558Z,93912.41
2023-04-14T23:18:48.248Z,93914.16
2023-04-14T23:21:22.563Z,93911.72
2023-04-14T23:24:09.267Z,93915.25
2023-04-14T23:26:42.344Z,93905.13
2023-04-14T23:29:29.280Z,93912.00
2023-04-14T23:32:02.432Z,93913.78
2023-04-14T23:34:49.307Z,93917.16
2023-04-14T23:37:29.312Z,93924.81
2023-04-14T23:40:17.260Z,93915.56
2023-04-14T23:42:57.280Z,93910.50
2023-04-14T23:45:44.259Z,93917.22
2023-04-14T23:48:17.405Z,93921.38
2023-04-14T23:51:20.116Z,93917.97
2023-04-14T23:54:01.287Z,93917.09
2023-04-14T23:56:48.282Z,93918.81
2023-04-14T23:59:21.943Z,93900.31
